Hostname: pi-star
Pi-Star:3.4.17 / Dashboard: 20210221

Pi-Star Digital Voice Dashboard for MW0MWZ

Dashboard | Admin | Configuration



DAPNET Gateway Activity
Time (GMT)Time in GMT time zone Time SlotMessage Mode TargetRIC / CapCode of the receiving Pager MessageMessage contents
18:21:13 Feb 24th Slot 12 0351172 M0GLJ: GCFV 241800Z 03014KT CAVOK 20/16 Q1023
18:21:13 Feb 24th Slot 12 0351172 M0GLJ: EGNX 241750Z 19019KT 9999 BKN027 13/08 Q1016
18:20:00 Feb 24th Slot 0 0000008 mw0mwz
18:20:00 Feb 24th Slot 0 0002504 [Skyper OTA Time] 182000 240221
18:18:14 Feb 24th Slot 0 0002504 [Skyper OTA Time] 181800 240221
18:16:06 Feb 24th Slot 12 0002504 [Skyper OTA Time] 181600 240221
18:14:00 Feb 24th Slot 8 0002504 [Skyper OTA Time] 181400 240221
18:10:08 Feb 24th Slot 4 0000008 mw0mwz
18:10:08 Feb 24th Slot 4 0002504 [Skyper OTA Time] 181000 240221
18:10:08 Feb 24th Slot 4 0125389 DG1ABV: Guten Abend Niels bin gerade vom Laufen gekommen. Ich melde mich nachher
18:08:00 Feb 24th Slot 0 0002504 [Skyper OTA Time] 180800 240221
18:04:09 Feb 24th Slot 12 0002504 [Skyper OTA Time] 180400 240221
18:02:01 Feb 24th Slot 8 0002504 [Skyper OTA Time] 180200 240221
18:01:36 Feb 24th Slot 4 0004520 [Skyper Rubric:28 Msg:10] SARC: ARISS contact is scheduled for students at Estes Park Elementary School, E
18:01:36 Feb 24th Slot 4 0004520 [Skyper Rubric:28 Msg:9] SARC: Amateur Radio operators help fill earthquake donut holes
18:01:36 Feb 24th Slot 4 0004520 [Skyper Rubric:28 Msg:8] SARC: 23cm band in the spotlight with regulators
18:01:36 Feb 24th Slot 4 0004520 [Skyper Rubric:28 Msg:7] SWLING: FTIOM & UBMP, February 28-March 6
18:01:10 Feb 24th Slot 0 0004520 [Skyper Rubric:28 Msg:6] ARRL: Youth on the Air will Make Final Decision on Summer Camp in April
18:01:10 Feb 24th Slot 0 0004520 [Skyper Rubric:28 Msg:5] SWLING: Kevins care packages for the homeless include a simple radio
18:01:10 Feb 24th Slot 0 0004520 [Skyper Rubric:28 Msg:4] SWLING: Video: How the Philips factory made vacuum tubes